createdAt,value
2024-05-09T00:00:35.767Z,12.40
2024-05-09T00:03:10.868Z,12.39
2024-05-09T00:05:41.072Z,12.38
2024-05-09T00:08:08.997Z,12.37
2024-05-09T00:10:38.262Z,12.31
2024-05-09T00:13:07.492Z,12.36
2024-05-09T00:15:35.480Z,12.31
2024-05-09T00:18:03.384Z,12.34
2024-05-09T00:20:37.651Z,12.35
2024-05-09T00:23:16.182Z,12.35
2024-05-09T00:25:43.795Z,12.42
2024-05-09T00:28:14.248Z,12.42
2024-05-09T00:30:41.232Z,12.42
2024-05-09T00:33:09.870Z,12.36
2024-05-09T00:35:38.505Z,12.34
2024-05-09T00:38:05.648Z,12.32
2024-05-09T00:40:41.990Z,12.26
2024-05-09T00:43:14.735Z,12.26
2024-05-09T00:45:42.934Z,12.20
2024-05-09T00:48:13.483Z,12.23
2024-05-09T00:50:44.179Z,12.23
2024-05-09T00:53:12.993Z,12.32
2024-05-09T00:55:40.223Z,12.28
2024-05-09T00:58:09.225Z,12.25
2024-05-09T01:00:39.770Z,12.22
2024-05-09T01:03:10.796Z,12.23
2024-05-09T01:05:40.023Z,12.20
2024-05-09T01:08:07.628Z,12.19
2024-05-09T01:10:35.991Z,12.16
2024-05-09T01:13:07.443Z,12.10
2024-05-09T01:15:35.134Z,12.10
2024-05-09T01:18:13.180Z,12.09
2024-05-09T01:20:43.708Z,12.08
2024-05-09T01:23:14.656Z,12.04
2024-05-09T01:25:43.918Z,11.93
2024-05-09T01:28:11.029Z,11.94
2024-05-09T01:30:38.560Z,11.94
2024-05-09T01:33:08.474Z,11.97
2024-05-09T01:35:37.233Z,12.02
2024-05-09T01:38:04.550Z,11.95
2024-05-09T01:40:38.361Z,11.90
2024-05-09T01:43:08.822Z,11.89
2024-05-09T01:45:36.661Z,11.82
2024-05-09T01:48:03.906Z,11.84
2024-05-09T01:53:00.737Z,11.80
2024-05-09T01:55:27.586Z,11.78
2024-05-09T01:57:54.313Z,11.83
2024-05-09T02:00:30.611Z,11.78
2024-05-09T02:03:05.398Z,11.77
2024-05-09T02:05:32.316Z,11.82
2024-05-09T02:07:59.213Z,11.78
2024-05-09T02:10:32.148Z,11.81
2024-05-09T02:12:59.949Z,11.79
2024-05-09T02:15:26.786Z,11.76
2024-05-09T02:17:53.738Z,11.70
2024-05-09T02:20:30.143Z,11.64
2024-05-09T02:23:04.632Z,11.62
2024-05-09T02:25:32.918Z,11.56
2024-05-09T02:27:59.900Z,11.49
2024-05-09T02:30:36.570Z,11.47
2024-05-09T02:33:08.070Z,11.46
2024-05-09T02:35:35.635Z,11.40
2024-05-09T02:38:02.569Z,11.36
2024-05-09T02:40:36.397Z,11.41
2024-05-09T02:43:10.196Z,11.47
2024-05-09T02:45:38.506Z,11.54
2024-05-09T02:48:06.099Z,11.55
2024-05-09T02:50:37.742Z,11.56
2024-05-09T02:53:07.663Z,11.64
2024-05-09T02:55:34.738Z,11.64
2024-05-09T02:58:01.605Z,11.62
2024-05-09T03:00:36.807Z,11.63
2024-05-09T03:03:08.734Z,11.54
2024-05-09T03:05:36.938Z,11.57
2024-05-09T03:08:04.476Z,11.52
2024-05-09T03:10:36.008Z,11.60
2024-05-09T03:13:14.657Z,11.54
2024-05-09T03:15:42.836Z,11.51
2024-05-09T03:18:10.168Z,11.53
2024-05-09T03:20:38.208Z,11.53
2024-05-09T03:23:08.048Z,11.54
2024-05-09T03:25:37.243Z,11.41
2024-05-09T03:28:04.286Z,11.39
2024-05-09T03:30:39.733Z,11.44
2024-05-09T03:33:18.794Z,11.44
2024-05-09T03:35:47.531Z,11.47
2024-05-09T03:38:14.601Z,11.51
2024-05-09T03:40:50.347Z,11.51
2024-05-09T03:43:18.820Z,11.49
2024-05-09T03:45:47.460Z,11.54
2024-05-09T03:48:14.559Z,11.54
2024-05-09T03:50:41.674Z,11.59
2024-05-09T03:53:13.404Z,11.58
2024-05-09T03:55:40.796Z,11.60
2024-05-09T03:58:08.394Z,11.64
2024-05-09T04:00:38.799Z,11.69
2024-05-09T04:03:10.100Z,11.68
2024-05-09T04:05:43.142Z,11.64
2024-05-09T04:08:11.227Z,11.63
2024-05-09T04:10:38.399Z,11.74
2024-05-09T04:13:05.610Z,11.73
2024-05-09T04:15:32.712Z,11.72
2024-05-09T04:18:00.015Z,11.77
2024-05-09T04:22:56.944Z,11.90
2024-05-09T04:25:23.897Z,11.94
2024-05-09T04:27:50.665Z,12.00
2024-05-09T04:30:25.722Z,12.08
2024-05-09T04:33:01.004Z,12.09
2024-05-09T04:35:28.010Z,12.19
2024-05-09T04:37:54.819Z,12.27
2024-05-09T04:40:28.533Z,12.42
2024-05-09T04:43:00.539Z,12.42
2024-05-09T04:45:27.291Z,12.38
2024-05-09T04:47:54.632Z,12.40
2024-05-09T04:50:29.987Z,12.38
2024-05-09T04:53:03.102Z,12.41
2024-05-09T04:55:33.347Z,12.47
2024-05-09T04:58:00.114Z,12.47
2024-05-09T05:00:34.713Z,12.53
2024-05-09T05:03:15.369Z,12.55
2024-05-09T05:05:45.317Z,12.55
2024-05-09T05:08:17.062Z,12.54
2024-05-09T05:10:45.455Z,12.56
2024-05-09T05:13:24.947Z,12.59
2024-05-09T05:15:56.550Z,12.60
2024-05-09T05:18:24.721Z,12.62
2024-05-09T05:20:51.763Z,12.74
2024-05-09T05:23:20.445Z,12.80
2024-05-09T05:25:48.822Z,12.81
2024-05-09T05:28:17.050Z,12.77
2024-05-09T05:30:44.188Z,12.72
2024-05-09T05:33:13.644Z,12.75
2024-05-09T05:35:41.550Z,12.76
2024-05-09T05:38:09.279Z,12.76
2024-05-09T05:40:40.225Z,12.79
2024-05-09T05:46:04.621Z,12.89
2024-05-09T05:48:31.453Z,13.00
2024-05-09T05:51:00.433Z,13.18
2024-05-09T05:53:28.530Z,13.30
2024-05-09T05:55:55.323Z,13.31
2024-05-09T05:58:22.579Z,13.37
2024-05-09T06:00:50.775Z,13.25
2024-05-09T06:03:17.621Z,13.21
2024-05-09T06:05:45.913Z,13.21
2024-05-09T06:08:13.015Z,13.33
2024-05-09T06:10:41.342Z,13.30
2024-05-09T06:13:12.368Z,13.43
2024-05-09T06:15:40.647Z,13.48
2024-05-09T06:18:09.473Z,13.48
2024-05-09T06:20:39.488Z,13.42
2024-05-09T06:23:07.211Z,13.38
2024-05-09T06:25:35.712Z,13.45
2024-05-09T06:28:02.714Z,13.55
2024-05-09T06:30:37.979Z,13.54
2024-05-09T06:33:09.366Z,13.60
2024-05-09T06:35:37.441Z,13.65
2024-05-09T06:38:04.604Z,13.74
2024-05-09T06:40:37.470Z,13.93
2024-05-09T06:43:18.218Z,13.91
2024-05-09T06:45:48.246Z,13.95
2024-05-09T06:48:18.193Z,14.13
2024-05-09T06:50:45.485Z,14.32
2024-05-09T06:53:16.341Z,14.51
2024-05-09T06:55:43.259Z,14.64
2024-05-09T06:58:10.116Z,14.63
2024-05-09T07:00:39.991Z,14.46
2024-05-09T07:03:13.857Z,14.43
2024-05-09T07:05:43.074Z,14.31
2024-05-09T07:08:10.368Z,14.38
2024-05-09T07:10:37.680Z,14.43
2024-05-09T07:13:12.144Z,14.52
2024-05-09T07:15:39.726Z,14.53
2024-05-09T07:18:11.411Z,14.55
2024-05-09T07:20:39.263Z,14.63
2024-05-09T07:23:09.284Z,14.66
2024-05-09T07:25:36.307Z,14.68
2024-05-09T07:28:03.157Z,14.72
2024-05-09T07:30:33.595Z,14.84
2024-05-09T07:33:02.564Z,15.02
2024-05-09T07:35:30.262Z,14.95
2024-05-09T07:37:57.467Z,14.80
2024-05-09T07:40:32.735Z,14.71
2024-05-09T07:43:04.319Z,14.73
2024-05-09T07:45:47.980Z,14.75
2024-05-09T07:50:00.267Z,14.91
2024-05-09T07:53:49.094Z,14.80
2024-05-09T07:56:21.743Z,14.68
2024-05-09T07:58:50.810Z,14.62
2024-05-09T08:01:17.905Z,14.61
2024-05-09T08:03:45.066Z,14.78
2024-05-09T08:06:12.055Z,15.05
2024-05-09T08:08:38.774Z,15.27
2024-05-09T08:11:06.560Z,15.58
2024-05-09T08:13:33.456Z,15.87
2024-05-09T08:16:00.539Z,16.18
2024-05-09T08:18:27.751Z,16.36
2024-05-09T08:20:54.608Z,16.57
2024-05-09T08:23:21.385Z,16.40
2024-05-09T08:25:48.153Z,16.33
2024-05-09T08:28:15.683Z,16.26
2024-05-09T08:30:43.161Z,16.02
2024-05-09T08:33:10.367Z,16.08
2024-05-09T08:35:37.507Z,15.90
2024-05-09T08:38:06.300Z,15.85
2024-05-09T08:40:36.202Z,15.87
2024-05-09T08:43:11.019Z,15.83
2024-05-09T08:45:42.401Z,15.68
2024-05-09T08:48:12.055Z,15.75
2024-05-09T08:50:41.433Z,15.77
2024-05-09T08:53:08.947Z,15.73
2024-05-09T08:55:40.404Z,15.67
2024-05-09T08:58:12.755Z,15.71
2024-05-09T09:00:42.128Z,15.63
2024-05-09T09:03:11.649Z,15.60
2024-05-09T09:05:40.888Z,15.51
2024-05-09T09:08:08.814Z,15.48
2024-05-09T09:10:38.044Z,15.56
2024-05-09T09:13:07.235Z,15.71
2024-05-09T09:15:34.193Z,15.99
2024-05-09T09:18:01.500Z,16.10
2024-05-09T09:20:35.850Z,16.46
2024-05-09T09:23:04.526Z,16.80
2024-05-09T09:25:31.911Z,17.03
2024-05-09T09:27:59.138Z,16.88
2024-05-09T09:30:36.312Z,17.03
2024-05-09T09:33:13.963Z,17.14
2024-05-09T09:35:41.046Z,16.99
2024-05-09T09:38:10.475Z,17.02
2024-05-09T09:40:44.761Z,17.13
2024-05-09T09:43:19.486Z,17.20
2024-05-09T09:45:50.802Z,17.32
2024-05-09T09:48:17.751Z,17.09
2024-05-09T09:50:45.624Z,17.20
2024-05-09T09:53:12.812Z,17.27
2024-05-09T09:55:40.616Z,17.44
2024-05-09T09:58:09.790Z,17.51
2024-05-09T10:00:39.078Z,17.39
2024-05-09T10:03:05.936Z,17.30
2024-05-09T10:05:34.264Z,17.24
2024-05-09T10:08:06.697Z,17.39
2024-05-09T10:10:34.911Z,17.44
2024-05-09T10:13:06.066Z,17.69
2024-05-09T10:15:45.479Z,17.89
2024-05-09T10:18:12.843Z,17.90
2024-05-09T10:20:44.226Z,17.56
2024-05-09T10:23:26.909Z,17.24
2024-05-09T10:26:05.403Z,17.06
2024-05-09T10:28:35.350Z,16.95
2024-05-09T10:31:13.886Z,17.02
2024-05-09T10:33:52.334Z,17.07
2024-05-09T10:36:25.210Z,17.01
2024-05-09T10:38:56.023Z,17.13
2024-05-09T10:41:23.986Z,17.42
2024-05-09T10:43:52.079Z,17.67
2024-05-09T10:46:19.631Z,17.84
2024-05-09T10:48:47.466Z,17.75
2024-05-09T10:51:14.465Z,17.74
2024-05-09T10:53:45.419Z,17.86
2024-05-09T10:56:14.068Z,17.87
2024-05-09T10:58:40.849Z,17.83
2024-05-09T11:01:09.239Z,17.77
2024-05-09T11:03:36.993Z,17.91
2024-05-09T11:06:05.468Z,18.08
2024-05-09T11:08:33.092Z,18.00
2024-05-09T11:11:00.447Z,18.13
2024-05-09T11:13:27.210Z,18.35
2024-05-09T11:15:54.132Z,18.42
2024-05-09T11:18:26.068Z,18.47
2024-05-09T11:20:55.552Z,18.55
2024-05-09T11:23:26.243Z,18.62
2024-05-09T11:25:54.838Z,18.34
2024-05-09T11:28:22.946Z,18.20
2024-05-09T11:30:50.890Z,18.18
2024-05-09T11:33:20.845Z,17.99
2024-05-09T11:35:47.901Z,17.76
2024-05-09T11:38:14.608Z,17.54
2024-05-09T11:40:41.721Z,17.49
2024-05-09T11:43:08.744Z,17.55
2024-05-09T11:45:35.557Z,17.75
2024-05-09T11:48:03.978Z,17.92
2024-05-09T11:50:35.306Z,17.95
2024-05-09T11:53:02.939Z,17.90
2024-05-09T11:55:29.753Z,18.01
2024-05-09T11:57:57.593Z,18.17
2024-05-09T12:00:33.766Z,18.28
2024-05-09T12:03:05.440Z,18.33
2024-05-09T12:05:34.215Z,18.26
2024-05-09T12:08:01.523Z,18.25
2024-05-09T12:10:33.478Z,18.22
2024-05-09T12:13:04.134Z,18.21
2024-05-09T12:15:32.643Z,18.06
2024-05-09T12:18:02.749Z,18.01
2024-05-09T12:20:36.655Z,18.07
2024-05-09T12:23:06.628Z,18.09
2024-05-09T12:25:33.720Z,18.29
2024-05-09T12:28:00.811Z,18.36
2024-05-09T12:30:36.126Z,18.33
2024-05-09T12:33:11.638Z,18.37
2024-05-09T12:35:39.294Z,18.57
2024-05-09T12:38:05.988Z,18.51
2024-05-09T12:40:36.837Z,18.69
2024-05-09T12:43:10.144Z,18.49
2024-05-09T12:45:38.638Z,18.62
2024-05-09T12:48:08.404Z,18.51
2024-05-09T12:50:35.986Z,18.53
2024-05-09T12:53:04.120Z,18.66
2024-05-09T12:55:40.360Z,18.72
2024-05-09T12:58:15.903Z,18.69
2024-05-09T13:00:43.450Z,18.57
2024-05-09T13:03:10.435Z,18.55
2024-05-09T13:05:37.412Z,18.65
2024-05-09T13:08:04.602Z,18.71
2024-05-09T13:10:33.101Z,18.76
2024-05-09T13:13:01.867Z,18.84
2024-05-09T13:15:30.591Z,18.88
2024-05-09T13:18:01.544Z,19.02
2024-05-09T13:20:33.524Z,19.18
2024-05-09T13:23:07.514Z,19.25
2024-05-09T13:25:35.872Z,19.10
2024-05-09T13:28:04.090Z,19.13
2024-05-09T13:30:39.094Z,18.98
2024-05-09T13:33:12.785Z,18.85
2024-05-09T13:35:46.694Z,18.80
2024-05-09T13:38:16.466Z,18.64
2024-05-09T13:40:43.236Z,18.72
2024-05-09T13:43:10.064Z,18.74
2024-05-09T13:45:36.852Z,18.90
2024-05-09T13:48:04.564Z,18.84
2024-05-09T13:50:35.324Z,18.62
2024-05-09T13:53:06.346Z,18.46
2024-05-09T13:55:34.299Z,18.35
2024-05-09T13:58:01.418Z,18.53
2024-05-09T14:00:41.677Z,18.84
2024-05-09T14:03:14.015Z,19.04
2024-05-09T14:05:41.271Z,19.10
2024-05-09T14:08:09.175Z,19.08
2024-05-09T14:10:36.173Z,18.90
2024-05-09T14:13:03.048Z,19.04
2024-05-09T14:15:29.951Z,19.17
2024-05-09T14:17:56.856Z,19.40
2024-05-09T14:20:30.669Z,19.64
2024-05-09T14:23:00.427Z,19.66
2024-05-09T14:25:28.798Z,19.75
2024-05-09T14:27:58.154Z,19.70
2024-05-09T14:30:33.740Z,19.60
2024-05-09T14:33:04.463Z,19.57
2024-05-09T14:35:31.466Z,19.44
2024-05-09T14:37:58.855Z,19.58
2024-05-09T14:40:36.269Z,19.33
2024-05-09T14:43:08.024Z,19.10
2024-05-09T14:45:35.174Z,18.97
2024-05-09T14:48:03.060Z,19.08
2024-05-09T14:50:35.963Z,19.16
2024-05-09T14:53:07.026Z,19.17
2024-05-09T14:55:39.811Z,19.15
2024-05-09T14:58:08.526Z,19.09
2024-05-09T15:00:41.259Z,19.17
2024-05-09T15:03:11.374Z,19.11
2024-05-09T15:05:38.291Z,19.14
2024-05-09T15:08:08.757Z,19.10
2024-05-09T15:10:36.923Z,19.17
2024-05-09T15:13:07.030Z,19.00
2024-05-09T15:15:35.407Z,18.93
2024-05-09T15:18:04.148Z,18.80
2024-05-09T15:20:35.292Z,18.79
2024-05-09T15:23:06.874Z,18.77
2024-05-09T15:25:35.340Z,18.73
2024-05-09T15:28:02.568Z,18.88
2024-05-09T15:30:36.154Z,18.94
2024-05-09T15:33:04.077Z,18.97
2024-05-09T15:35:31.267Z,18.99
2024-05-09T15:37:58.198Z,18.91
2024-05-09T15:40:34.823Z,18.89
2024-05-09T15:43:07.130Z,18.88
2024-05-09T15:45:34.692Z,18.86
2024-05-09T15:48:02.578Z,18.88
2024-05-09T15:50:37.009Z,18.79
2024-05-09T15:53:08.116Z,18.70
2024-05-09T15:55:35.850Z,18.78
2024-05-09T15:58:04.153Z,18.72
2024-05-09T16:00:38.869Z,18.60
2024-05-09T16:03:13.876Z,18.53
2024-05-09T16:05:44.517Z,18.55
2024-05-09T16:08:12.703Z,18.41
2024-05-09T16:10:44.236Z,18.32
2024-05-09T16:13:12.172Z,18.21
2024-05-09T16:15:39.178Z,18.25
2024-05-09T16:18:06.711Z,18.27
2024-05-09T16:20:38.745Z,18.31
2024-05-09T16:23:08.937Z,18.34
2024-05-09T16:25:36.362Z,18.33
2024-05-09T16:28:07.435Z,18.15
2024-05-09T16:30:37.198Z,18.10
2024-05-09T16:33:05.394Z,18.05
2024-05-09T16:35:32.736Z,18.07
2024-05-09T16:38:01.865Z,17.98
2024-05-09T16:40:36.380Z,17.89
2024-05-09T16:43:07.311Z,17.88
2024-05-09T16:45:34.597Z,17.93
2024-05-09T16:48:01.918Z,17.84
2024-05-09T16:50:33.449Z,17.75
2024-05-09T16:53:02.667Z,17.75
2024-05-09T16:55:29.548Z,17.73
2024-05-09T16:57:57.471Z,17.70
2024-05-09T17:00:35.454Z,17.65
2024-05-09T17:03:09.734Z,17.65
2024-05-09T17:05:37.217Z,17.68
2024-05-09T17:08:04.938Z,17.58
2024-05-09T17:10:34.106Z,17.48
2024-05-09T17:13:03.611Z,17.38
2024-05-09T17:15:32.215Z,17.31
2024-05-09T17:17:59.320Z,17.30
2024-05-09T17:20:32.562Z,17.28
2024-05-09T17:23:03.054Z,17.22
2024-05-09T17:25:30.100Z,17.22
2024-05-09T17:27:57.273Z,17.24
2024-05-09T17:30:29.371Z,17.15
2024-05-09T17:33:03.501Z,17.12
2024-05-09T17:35:31.194Z,17.03
2024-05-09T17:37:58.526Z,16.97
2024-05-09T17:40:31.481Z,16.93
2024-05-09T17:43:02.814Z,16.89
2024-05-09T17:45:29.792Z,16.82
2024-05-09T17:47:56.902Z,16.78
2024-05-09T17:50:30.405Z,16.75
2024-05-09T17:53:01.834Z,16.73
2024-05-09T17:55:29.061Z,16.70
2024-05-09T17:57:56.036Z,16.63
2024-05-09T18:00:33.156Z,16.62
2024-05-09T18:03:05.727Z,16.57
2024-05-09T18:05:32.939Z,16.53
2024-05-09T18:08:00.052Z,16.50
2024-05-09T18:10:33.784Z,16.45
2024-05-09T18:13:05.796Z,16.39
2024-05-09T18:15:33.169Z,16.34
2024-05-09T18:18:00.763Z,16.24
2024-05-09T18:20:37.608Z,16.19
2024-05-09T18:23:10.159Z,16.09
2024-05-09T18:25:37.286Z,15.97
2024-05-09T18:28:04.657Z,15.84
2024-05-09T18:30:35.057Z,15.79
2024-05-09T18:33:05.530Z,15.69
2024-05-09T18:35:33.599Z,15.60
2024-05-09T18:38:00.680Z,15.54
2024-05-09T18:40:33.023Z,15.53
2024-05-09T18:43:03.732Z,15.51
2024-05-09T18:45:30.799Z,15.46
2024-05-09T18:47:58.210Z,15.43
2024-05-09T18:50:33.999Z,15.38
2024-05-09T18:53:08.266Z,15.31
2024-05-09T18:55:35.511Z,15.25
2024-05-09T18:58:03.354Z,15.23
2024-05-09T19:00:35.781Z,15.13
2024-05-09T19:03:09.701Z,15.03
2024-05-09T19:05:39.311Z,14.97
2024-05-09T19:08:07.891Z,14.91
2024-05-09T19:10:36.610Z,14.83
2024-05-09T19:13:09.345Z,14.76
2024-05-09T19:15:40.160Z,14.72
2024-05-09T19:18:07.824Z,14.64
2024-05-09T19:20:36.398Z,14.54
2024-05-09T19:23:04.976Z,14.49
2024-05-09T19:25:32.856Z,14.37
2024-05-09T19:28:00.095Z,14.23
2024-05-09T19:30:36.511Z,14.11
2024-05-09T19:33:07.733Z,14.07
2024-05-09T19:35:34.699Z,14.02
2024-05-09T19:38:01.898Z,13.99
2024-05-09T19:40:32.049Z,13.94
2024-05-09T19:43:05.548Z,13.88
2024-05-09T19:45:34.276Z,13.89
2024-05-09T19:48:02.292Z,13.82
2024-05-09T19:50:39.300Z,13.75
2024-05-09T19:53:10.194Z,13.72
2024-05-09T19:55:37.604Z,13.67
2024-05-09T19:58:07.092Z,13.61
2024-05-09T20:00:37.326Z,13.57
2024-05-09T20:03:06.577Z,13.55
2024-05-09T20:05:34.098Z,13.53
2024-05-09T20:08:01.100Z,13.47
2024-05-09T20:10:32.470Z,13.40
2024-05-09T20:13:01.583Z,13.29
2024-05-09T20:15:28.481Z,13.22
2024-05-09T20:17:55.640Z,13.17
2024-05-09T20:20:32.519Z,13.16
2024-05-09T20:23:04.818Z,13.08
2024-05-09T20:25:31.699Z,13.11
2024-05-09T20:27:58.438Z,13.09
2024-05-09T20:30:31.476Z,13.00
2024-05-09T20:33:01.857Z,12.85
2024-05-09T20:35:31.949Z,12.76
2024-05-09T20:37:59.389Z,12.71
2024-05-09T20:40:32.304Z,12.70
2024-05-09T20:43:02.983Z,12.66
2024-05-09T20:45:29.757Z,12.61
2024-05-09T20:47:57.575Z,12.59
2024-05-09T20:50:35.407Z,12.52
2024-05-09T20:53:12.148Z,12.46
2024-05-09T20:55:40.058Z,12.43
2024-05-09T20:58:06.890Z,12.32
2024-05-09T21:00:39.985Z,12.26
2024-05-09T21:03:10.891Z,12.27
2024-05-09T21:05:38.409Z,12.29
2024-05-09T21:08:05.813Z,12.37
2024-05-09T21:10:34.039Z,12.37
2024-05-09T21:13:03.001Z,12.34
2024-05-09T21:15:30.675Z,12.29
2024-05-09T21:17:57.618Z,12.29
2024-05-09T21:20:30.941Z,12.31
2024-05-09T21:22:59.439Z,12.32
2024-05-09T21:25:26.524Z,12.31
2024-05-09T21:27:53.453Z,12.27
2024-05-09T21:30:32.320Z,12.23
2024-05-09T21:33:12.550Z,12.18
2024-05-09T21:35:41.719Z,12.17
2024-05-09T21:38:08.775Z,12.13
2024-05-09T21:40:39.373Z,12.12
2024-05-09T21:43:07.613Z,12.04
2024-05-09T21:45:35.358Z,11.94
2024-05-09T21:48:06.565Z,11.85
2024-05-09T21:50:39.775Z,11.85
2024-05-09T21:53:08.907Z,11.81
2024-05-09T21:55:35.936Z,11.80
2024-05-09T21:58:03.424Z,11.75
2024-05-09T22:00:36.301Z,11.74
2024-05-09T22:03:10.603Z,11.69
2024-05-09T22:05:42.065Z,11.67
2024-05-09T22:08:09.531Z,11.67
2024-05-09T22:10:37.158Z,11.54
2024-05-09T22:13:08.558Z,11.58
2024-05-09T22:15:37.824Z,11.50
2024-05-09T22:18:08.619Z,11.45
2024-05-09T22:20:52.858Z,11.45
2024-05-09T22:23:34.529Z,11.35
2024-05-09T22:26:01.286Z,11.32
2024-05-09T22:28:28.061Z,11.29
2024-05-09T22:30:56.066Z,11.24
2024-05-09T22:33:31.517Z,11.25
2024-05-09T22:36:10.035Z,11.25
2024-05-09T22:38:48.472Z,11.19
2024-05-09T22:41:24.181Z,11.14
2024-05-09T22:43:56.627Z,11.03
2024-05-09T22:46:23.450Z,11.04
2024-05-09T22:48:50.295Z,10.99
2024-05-09T22:51:17.143Z,11.00
2024-05-09T22:53:43.853Z,10.94
2024-05-09T22:56:14.043Z,10.92
2024-05-09T22:58:40.766Z,10.87
2024-05-09T23:01:14.827Z,10.84
2024-05-09T23:03:41.797Z,10.85
2024-05-09T23:06:08.735Z,10.78
2024-05-09T23:08:35.569Z,10.88
2024-05-09T23:11:03.995Z,10.80
2024-05-09T23:13:30.805Z,10.73
2024-05-09T23:15:57.849Z,10.77
2024-05-09T23:18:24.611Z,10.77
2024-05-09T23:20:51.929Z,10.72
2024-05-09T23:23:18.826Z,10.66
2024-05-09T23:25:45.640Z,10.66
2024-05-09T23:28:12.686Z,10.64
2024-05-09T23:30:41.128Z,10.55
2024-05-09T23:33:13.315Z,10.51
2024-05-09T23:35:42.212Z,10.53
2024-05-09T23:38:09.140Z,10.48
2024-05-09T23:40:39.626Z,10.50
2024-05-09T23:43:10.403Z,10.52
2024-05-09T23:45:38.591Z,10.47
2024-05-09T23:48:06.564Z,10.42
2024-05-09T23:50:36.807Z,10.44
2024-05-09T23:53:07.988Z,10.36
2024-05-09T23:55:36.106Z,10.38
2024-05-09T23:58:02.959Z,10.35
